Terminal Aerodrome Forecast
Issued by NWS

Home | Current Version | Previous Version | Text Only | Print | Product List | Glossary On
Versions: 1 2 3 4 5 6 7 8 9 10 11 12
000
FTUS42 TJSJ 142300 RRA
TAFKPK
TAF
TKPK 142339Z 1500/1524 04010KT P6SM VCSH FEW019 SCT030
     FM150500 06006KT P6SM SCT020
      TEMPO 1505/1509 -SHRA BKN018
     FM151430 06013KT P6SM SCT022
      AMD NOT SKED 1502/1511=

USA.gov is the U.S. government's official web portal to all federal, state and local government web resources and services.